Time;durP1;ratioP1;P1;durP2;ratioP2;P2;SDS_P1;SDS_P2;PMS_P1;PMS_P2;Temp;Humidity;BMP_temperature;BMP_pressure;BME280_temperature;BME280_humidity;BME280_pressure;Samples;Min_cycle;Max_cycle;Signal;HPM_P1;HPM_P2
2021/03/17 00:01:06;;;;;;;3.33;1.60;;;3.20;81.30;;;1.09;79.91;96328.09;4950190;28;20506;-65
2021/03/17 00:03:32;;;;;;;5.10;2.40;;;3.30;81.40;;;1.05;80.13;96329.28;4950867;28;20484;-64
2021/03/17 00:05:57;;;;;;;4.15;2.10;;;3.10;81.90;;;1.04;79.83;96328.47;4931475;29;20094;-65
2021/03/17 00:08:23;;;;;;;4.78;2.33;;;3.10;81.80;;;1.06;79.79;96334.34;4957860;28;20703;-64
2021/03/17 00:10:53;;;;;;;4.25;2.28;;;3.20;81.60;;;1.05;80.96;96329.28;4951322;28;20039;-65
2021/03/17 00:13:26;;;;;;;3.08;2.17;;;3.20;81.60;;;1.06;81.04;96336.94;4934391;29;20437;-65
2021/03/17 00:15:53;;;;;;;4.53;2.00;;;3.20;81.60;;;1.07;80.36;96329.97;4950533;28;20042;-65
2021/03/17 00:18:18;;;;;;;4.20;1.95;;;3.20;81.60;;;1.06;79.93;96331.75;4950406;28;20086;-64
2021/03/17 00:20:44;;;;;;;3.70;1.83;;;3.20;81.50;;;1.06;80.22;96325.75;4933525;28;20305;-64
2021/03/17 00:23:10;;;;;;;4.25;2.00;;;3.20;81.60;;;1.03;80.13;96321.66;4949915;28;20738;-65
2021/03/17 00:25:37;;;;;;;3.25;2.25;;;3.20;81.60;;;1.02;80.41;96320.00;4950248;28;20043;-65
2021/03/17 00:28:03;;;;;;;6.10;2.17;;;3.20;81.50;;;1.07;79.97;96319.63;4918253;29;20042;-65
2021/03/17 00:30:33;;;;;;;5.15;2.80;;;3.20;81.50;;;1.07;81.15;96317.03;4933378;29;20074;-64
2021/03/17 00:33:00;;;;;;;3.72;2.50;;;3.20;81.60;;;1.05;80.47;96321.50;4950754;28;20648;-64
2021/03/17 00:35:29;;;;;;;5.05;3.15;;;3.20;81.80;;;1.02;80.90;96322.59;4918411;29;20407;-64
2021/03/17 00:37:55;;;;;;;8.50;2.63;;;3.10;82.10;;;1.01;80.48;96322.72;4950014;29;20043;-64
2021/03/17 00:40:21;;;;;;;4.25;2.67;;;3.20;82.10;;;1.03;80.85;96321.66;4931648;29;20039;-64
2021/03/17 00:42:47;;;;;;;5.97;2.95;;;3.20;81.80;;;1.01;80.69;96323.53;4949626;28;20046;-64
2021/03/17 00:45:13;;;;;;;5.60;3.33;;;3.20;81.70;;;1.05;80.97;96330.09;4950012;28;20467;-64
2021/03/17 00:47:39;;;;;;;5.25;3.38;;;3.20;81.90;;;1.05;80.63;96321.50;4950817;28;20050;-64
2021/03/17 00:50:06;;;;;;;4.82;3.47;;;3.20;81.90;;;1.05;80.79;96319.75;4933443;29;20051;-64
2021/03/17 00:52:32;;;;;;;4.75;3.30;;;3.20;81.70;;;1.04;80.80;96310.34;4933349;28;20035;-64
2021/03/17 00:54:58;;;;;;;4.72;3.25;;;3.20;81.80;;;1.04;80.53;96307.75;4933619;29;20818;-64
2021/03/17 00:57:24;;;;;;;4.28;3.13;;;3.30;81.80;;;1.07;80.61;96311.84;4947412;28;20173;-64
2021/03/17 00:59:50;;;;;;;5.60;3.53;;;3.30;81.70;;;1.06;80.96;96305.84;4948649;28;20039;-64
2021/03/17 01:02:15;;;;;;;5.82;3.83;;;3.20;81.70;;;1.06;80.36;96300.66;4949743;28;20047;-64
2021/03/17 01:04:41;;;;;;;7.10;4.00;;;3.30;81.80;;;1.03;80.61;96295.75;4944094;28;20505;-64
2021/03/17 01:07:12;;;;;;;5.70;4.32;;;3.20;81.90;;;1.06;80.76;96292.91;4949314;28;20490;-64
2021/03/17 01:09:38;;;;;;;5.78;4.15;;;3.20;81.90;;;1.03;81.04;96293.16;4950768;28;20074;-64
2021/03/17 01:12:06;;;;;;;5.53;3.83;;;3.10;82.30;;;1.01;81.26;96289.03;4949192;28;20046;-64
2021/03/17 01:14:32;;;;;;;5.50;3.78;;;3.10;82.30;;;1.01;80.35;96287.28;4963757;23;20050;-75
2021/03/17 01:16:58;;;;;;;5.57;3.42;;;3.20;82.20;;;1.00;80.64;96280.47;4944876;28;20573;-75
2021/03/17 01:19:23;;;;;;;5.45;4.18;;;3.20;82.10;;;1.00;81.01;96283.03;4938525;28;20035;-75
2021/03/17 01:21:49;;;;;;;6.28;3.92;;;3.20;82.20;;;0.99;80.68;96276.22;4943172;28;20086;-74
2021/03/17 01:24:15;;;;;;;4.90;3.78;;;3.20;82.00;;;0.98;80.83;96274.59;4950323;28;20094;-75
2021/03/17 01:26:40;;;;;;;5.45;3.63;;;3.20;82.10;;;0.98;80.81;96274.59;4927460;29;20078;-75
2021/03/17 01:29:06;;;;;;;5.72;4.05;;;3.10;82.20;;;0.97;80.96;96270.34;4921151;29;20098;-75
2021/03/17 01:31:32;;;;;;;5.75;4.30;;;3.10;82.60;;;0.94;81.14;96265.44;4942371;28;20467;-75
2021/03/17 01:33:58;;;;;;;6.40;4.57;;;3.00;82.80;;;0.96;81.15;96265.31;4952356;28;20042;-75
2021/03/17 01:36:24;;;;;;;6.30;4.35;;;3.10;82.70;;;0.95;81.14;96263.66;4935662;28;20063;-74
2021/03/17 01:38:50;;;;;;;6.72;4.60;;;3.00;82.80;;;0.95;80.80;96271.44;4935683;28;20031;-75
2021/03/17 01:41:15;;;;;;;6.63;4.95;;;3.10;82.80;;;0.93;81.29;96268.16;4947338;28;20036;-75
2021/03/17 01:43:41;;;;;;;7.88;5.03;;;3.10;82.80;;;0.94;81.35;96262.03;4943055;28;20101;-75
2021/03/17 01:46:07;;;;;;;5.78;4.07;;;3.10;82.70;;;0.95;80.98;96266.25;4936347;28;20069;-75
2021/03/17 01:48:33;;;;;;;6.20;4.00;;;3.20;82.50;;;0.96;81.25;96262.72;4949767;28;20148;-74
2021/03/17 01:50:58;;;;;;;6.82;4.40;;;3.10;82.30;;;0.96;81.20;96255.75;4951888;28;20039;-75
2021/03/17 01:53:33;;;;;;;6.97;4.18;;;3.20;82.30;;;0.95;82.59;96259.31;4935732;28;20082;-75
2021/03/17 01:55:59;;;;;;;5.78;4.00;;;3.10;82.40;;;0.94;81.18;96247.31;4933775;29;20063;-75
2021/03/17 01:58:25;;;;;;;5.38;3.67;;;3.10;82.50;;;0.96;81.48;96257.53;4948313;28;20039;-74
2021/03/17 02:00:51;;;;;;;5.25;3.67;;;3.10;82.40;;;0.97;81.06;96247.03;4945879;28;20038;-75
2021/03/17 02:03:17;;;;;;;6.53;3.42;;;3.10;82.40;;;0.97;81.59;96243.63;4951490;28;20093;-75
2021/03/17 02:05:45;;;;;;;4.50;3.33;;;3.10;82.30;;;0.95;81.59;96236.00;4948565;29;20043;-74
2021/03/17 02:08:13;;;;;;;3.80;2.42;;;3.10;82.40;;;0.97;81.74;96234.09;4943842;28;20031;-75
2021/03/17 02:10:39;;;;;;;3.90;2.83;;;3.10;82.50;;;0.96;81.38;96224.69;4951134;28;20114;-75
2021/03/17 02:13:44;;;;;;;5.15;2.72;;;3.10;82.60;;;0.96;83.00;96232.44;4935733;28;20524;-74
2021/03/17 02:16:37;;;;;;;3.75;2.63;;;3.10;82.40;;;0.98;82.79;96220.19;4935639;29;20034;-75
2021/03/17 02:19:09;;;;;;;4.25;3.05;;;3.20;82.30;;;0.95;82.00;96220.44;4932672;29;20418;-75
2021/03/17 02:22:16;;;;;;;4.97;3.28;;;3.10;82.60;;;0.94;82.75;96216.22;4964447;28;20178;-75
2021/03/17 02:24:59;;;;;;;5.07;3.20;;;3.10;82.70;;;0.91;83.55;96219.06;4939437;28;20043;-75
2021/03/17 02:27:33;;;;;;;4.72;3.10;;;3.00;82.90;;;0.90;82.83;96222.56;4936130;28;20094;-74
2021/03/17 02:30:42;;;;;;;4.35;3.40;;;3.00;82.90;;;0.88;82.92;96208.94;4968772;28;20035;-75
2021/03/17 02:33:47;;;;;;;3.67;2.83;;;2.90;82.90;;;0.81;83.56;96213.81;4968631;28;20031;-75
2021/03/17 02:36:26;;;;;;;4.78;3.20;;;2.80;83.50;;;0.78;83.40;96208.88;4951523;28;20039;-75
2021/03/17 02:39:07;;;;;;;5.00;3.60;;;2.90;83.60;;;0.79;82.03;96215.69;4919627;28;20035;-76
2021/03/17 02:41:38;;;;;;;5.43;3.90;;;2.90;83.40;;;0.79;82.15;96205.34;4942940;28;20051;-75
2021/03/17 02:44:04;;;;;;;;;;;2.90;83.40;;;0.80;83.73;96206.16;4932483;29;20468;-75
2021/03/17 02:46:30;;;;;;;4.78;3.65;;;2.90;83.40;;;0.76;81.57;96205.59;4940891;28;19928;-73
2021/03/17 02:49:05;;;;;;;7.70;4.53;;;2.80;83.50;;;0.77;82.62;96219.38;4933146;28;20144;-73
2021/03/17 02:51:38;;;;;;;6.18;4.47;;;3.00;83.30;;;0.77;82.96;96216.78;4941202;28;20407;-73
2021/03/17 02:54:06;;;;;;;6.18;4.10;;;2.90;83.10;;;0.76;81.76;96215.13;4919467;28;20562;-73
2021/03/17 02:56:44;;;;;;;5.50;4.05;;;3.00;82.90;;;0.77;82.09;96216.78;4919241;28;20039;-73
2021/03/17 02:59:10;;;;;;;6.55;4.50;;;3.00;82.80;;;0.76;82.25;96209.97;4936599;28;20205;-73
2021/03/17 03:01:36;;;;;;;6.82;4.93;;;2.90;83.10;;;0.78;82.15;96218.41;4950604;28;20510;-74
2021/03/17 03:04:04;;;;;;;7.88;5.35;;;3.00;83.00;;;0.76;81.97;96208.19;4950725;28;20043;-73
2021/03/17 03:06:30;;;;;;;7.85;5.13;;;3.00;83.00;;;0.79;81.96;96220.06;4950300;28;20046;-73
2021/03/17 03:08:55;;;;;;;8.23;5.60;;;3.00;82.90;;;0.77;81.99;96219.38;4935499;28;20039;-74
2021/03/17 03:11:21;;;;;;;8.02;6.13;;;2.90;82.90;;;0.77;81.50;96211.59;4951230;28;20051;-74
2021/03/17 03:13:48;;;;;;;7.60;5.43;;;2.90;82.80;;;0.74;81.84;96209.28;4948873;28;20122;-73
2021/03/17 03:16:14;;;;;;;7.95;5.88;;;2.90;82.90;;;0.72;81.57;96201.63;4936830;28;20035;-74
2021/03/17 03:18:40;;;;;;;8.20;6.00;;;2.90;83.00;;;0.73;81.71;96212.81;4930377;28;20042;-73
2021/03/17 03:21:06;;;;;;;8.20;5.95;;;2.90;83.00;;;0.72;81.80;96208.56;4950719;28;20049;-73
2021/03/17 03:23:32;;;;;;;8.63;6.50;;;2.90;82.70;;;0.71;81.79;96206.94;4950920;28;20039;-73
2021/03/17 03:25:58;;;;;;;8.38;6.10;;;2.80;82.70;;;0.68;82.03;96202.84;4935785;28;20155;-73
2021/03/17 03:28:24;;;;;;;9.10;6.65;;;2.90;82.90;;;0.67;81.67;96195.97;4933834;28;20442;-72
2021/03/17 03:30:52;;;;;;;9.43;6.93;;;2.90;82.70;;;0.69;82.57;96194.13;4934836;28;20038;-73
2021/03/17 03:33:19;;;;;;;9.10;6.80;;;2.90;82.60;;;0.66;82.19;96202.09;4934270;28;20122;-73
2021/03/17 03:35:45;;;;;;;8.55;6.45;;;2.80;82.60;;;0.65;81.69;96202.25;4947577;29;20031;-75
2021/03/17 03:38:11;;;;;;;9.65;7.18;;;2.90;82.50;;;0.65;81.86;96199.66;4921387;29;20057;-73
2021/03/17 03:40:38;;;;;;;9.32;6.93;;;2.80;82.50;;;0.65;82.16;96208.22;4932578;29;20042;-73
2021/03/17 03:43:05;;;;;;;9.57;7.00;;;2.80;82.60;;;0.63;81.53;96204.13;4935168;28;20038;-73
2021/03/17 03:45:30;;;;;;;16.67;10.63;;;2.80;82.30;;;0.60;81.64;96211.19;4934692;28;20030;-73
2021/03/17 03:47:56;;;;;;;34.42;21.48;;;2.80;82.50;;;0.62;81.82;96208.50;4940594;28;20174;-73
2021/03/17 03:50:23;;;;;;;29.48;18.10;;;2.90;83.00;;;0.63;82.56;96209.31;4941625;29;20138;-72
2021/03/17 03:53:12;;;;;;;13.55;9.70;;;3.00;83.30;;;0.64;83.74;96213.53;4929697;28;20035;-73
2021/03/17 03:55:54;;;;;;;12.40;7.75;;;2.90;82.50;;;0.63;83.32;96209.31;4937327;28;20085;-74
2021/03/17 03:58:23;;;;;;;9.63;7.32;;;2.90;82.20;;;0.59;82.66;96209.56;4915554;29;20114;-74
2021/03/17 04:00:48;;;;;;;9.65;7.13;;;2.90;82.20;;;0.58;81.58;96207.09;4927777;29;20183;-74
2021/03/17 04:03:14;;;;;;;12.30;8.45;;;2.90;82.10;;;0.55;81.56;96213.34;4943684;28;20031;-75
2021/03/17 04:05:40;;;;;;;11.20;7.72;;;2.80;81.70;;;0.55;81.93;96212.53;4950763;28;20047;-71
2021/03/17 04:08:17;;;;;;;12.38;7.93;;;2.80;81.80;;;0.52;83.15;96221.38;4955391;28;20034;-70
2021/03/17 04:10:43;;;;;;;15.35;10.32;;;2.70;82.40;;;0.53;81.77;96210.06;4952367;28;20042;-68
2021/03/17 04:13:09;;;;;;;19.67;13.25;;;2.80;82.80;;;0.54;82.33;96216.88;4958457;28;20034;-68
2021/03/17 04:15:36;;;;;;;15.50;10.65;;;2.80;83.20;;;0.55;82.44;96218.53;4948338;28;20073;-77
2021/03/17 04:18:12;;;;;;;13.35;9.60;;;2.80;83.00;;;0.56;83.33;96220.16;4929193;28;20082;-68
2021/03/17 04:20:42;;;;;;;15.27;9.02;;;2.80;82.90;;;0.58;82.33;96223.44;4919857;28;20532;-69
2021/03/17 04:23:07;;;;;;;12.30;9.20;;;2.90;82.70;;;0.59;82.39;96219.09;4930037;29;20038;-67
2021/03/17 04:25:33;;;;;;;14.50;8.90;;;2.80;82.80;;;0.60;82.77;96226.72;4934808;28;20035;-67
2021/03/17 04:27:59;;;;;;;12.77;9.15;;;2.90;82.90;;;0.60;82.55;96224.16;4922036;29;20031;-67
2021/03/17 04:30:25;;;;;;;14.52;10.27;;;2.80;83.00;;;0.61;82.28;96228.38;4940447;28;20134;-70
2021/03/17 04:32:50;;;;;;;14.50;9.82;;;2.80;83.20;;;0.62;82.64;96224.03;4933217;28;20582;-73
2021/03/17 04:35:17;;;;;;;13.38;9.57;;;2.90;83.10;;;0.65;82.30;96230.72;4952452;28;20038;-74
2021/03/17 04:37:45;;;;;;;13.65;9.93;;;2.90;83.10;;;0.67;82.95;96226.22;4949150;28;20046;-74
2021/03/17 04:40:12;;;;;;;13.32;9.95;;;3.00;82.90;;;0.68;82.42;96227.88;4934052;29;20728;-74
2021/03/17 04:42:40;;;;;;;15.15;10.93;;;3.00;82.80;;;0.70;82.84;96224.25;4940135;28;20502;-74
2021/03/17 04:45:07;;;;;;;13.48;10.07;;;3.00;82.80;;;0.72;82.49;96234.47;4940548;28;20031;-73
2021/03/17 04:47:33;;;;;;;15.07;10.88;;;3.00;82.80;;;0.73;82.69;96236.09;4937191;28;20027;-73
2021/03/17 04:49:59;;;;;;;15.20;10.98;;;3.00;82.70;;;0.74;82.60;96232.56;4938855;28;20065;-74
2021/03/17 04:52:25;;;;;;;15.68;12.10;;;3.10;82.60;;;0.74;82.37;96232.56;4952222;28;20070;-73
2021/03/17 04:54:52;;;;;;;17.60;12.35;;;3.00;82.70;;;0.73;82.77;96223.16;4939119;29;20557;-73
2021/03/17 04:57:26;;;;;;;15.80;11.20;;;3.00;82.70;;;0.76;83.61;96225.50;4939986;28;20442;-73
2021/03/17 04:59:52;;;;;;;16.00;11.55;;;3.00;82.90;;;0.77;82.68;96233.13;4949080;28;20148;-74
2021/03/17 05:02:21;;;;;;;18.65;12.45;;;3.00;82.80;;;0.79;82.71;96235.59;4924510;28;20043;-74
2021/03/17 05:04:46;;;;;;;17.80;12.20;;;3.00;82.80;;;0.80;82.79;96230.28;4925974;28;20031;-73
2021/03/17 05:07:12;;;;;;;18.25;12.57;;;3.10;82.60;;;0.82;82.55;96235.34;4936508;29;20399;-73
2021/03/17 05:09:38;;;;;;;16.92;11.63;;;3.10;82.60;;;0.79;82.61;96230.41;4941400;28;20039;-74
2021/03/17 05:12:04;;;;;;;18.15;12.80;;;3.00;82.90;;;0.79;82.67;96235.59;4905393;29;20039;-73
2021/03/17 05:14:33;;;;;;;16.83;11.90;;;3.00;82.70;;;0.81;83.06;96244.06;4924808;28;20043;-76
2021/03/17 05:17:01;;;;;;;16.13;11.85;;;3.10;82.60;;;0.82;82.56;96237.94;4951653;28;20163;-76
2021/03/17 05:19:28;;;;;;;18.70;12.55;;;3.10;82.70;;;0.82;82.39;96235.34;4918638;28;20043;-75
2021/03/17 05:21:55;;;;;;;17.58;12.50;;;3.10;82.60;;;0.83;82.35;96234.41;4941792;28;20038;-76
2021/03/17 05:24:21;;;;;;;17.90;12.95;;;3.10;82.50;;;0.82;82.15;96236.16;4935363;28;20117;-75
2021/03/17 05:26:47;;;;;;;18.90;13.65;;;3.10;82.60;;;0.83;82.28;96237.81;4932523;29;20043;-66
2021/03/17 05:29:12;;;;;;;30.45;19.27;;;3.10;82.50;;;0.80;82.52;96235.47;4938051;28;20122;-66
2021/03/17 05:31:38;;;;;;;19.58;13.55;;;3.00;82.50;;;0.77;82.37;96234.91;4940547;28;20031;-67
2021/03/17 05:34:04;;;;;;;21.83;14.38;;;3.00;82.10;;;0.73;82.07;96217.97;4928733;28;20097;-68
2021/03/17 05:36:31;;;;;;;24.45;14.38;;;3.00;82.20;;;0.72;82.44;96218.94;4940111;29;20043;-69
2021/03/17 05:38:56;;;;;;;23.95;14.82;;;3.00;82.00;;;0.68;81.87;96217.50;4934945;28;20535;-68
2021/03/17 05:41:22;;;;;;;23.50;13.95;;;2.90;81.70;;;0.65;82.48;96228.94;4924114;29;20050;-74
2021/03/17 05:43:48;;;;;;;24.42;15.88;;;2.90;81.50;;;0.60;82.27;96234.50;4927330;28;20083;-70
2021/03/17 05:46:14;;;;;;;25.30;15.95;;;2.80;81.70;;;0.54;81.85;96232.41;4922594;28;20170;-69
2021/03/17 05:48:40;;;;;;;23.50;15.35;;;2.80;81.70;;;0.54;82.09;96226.41;4932314;28;20046;-67
2021/03/17 05:51:05;;;;;;;20.05;14.07;;;2.80;81.80;;;0.51;82.40;96232.66;4932594;29;20047;-66
2021/03/17 05:53:31;;;;;;;20.17;13.50;;;2.80;81.80;;;0.50;81.89;96236.19;4945049;28;20035;-69
2021/03/17 05:56:00;;;;;;;21.25;13.73;;;2.80;81.90;;;0.46;82.43;96247.75;4937952;28;20074;-64
2021/03/17 05:58:26;;;;;;;20.90;14.43;;;2.60;82.80;;;0.46;82.25;96245.16;4935760;28;20035;-74
2021/03/17 06:00:52;;;;;;;21.75;15.43;;;2.70;82.80;;;0.47;82.53;96240.81;4941110;29;20039;-72
2021/03/17 06:03:17;;;;;;;20.42;13.75;;;2.70;83.00;;;0.48;82.61;96253.63;4943600;28;20086;-69
2021/03/17 06:05:45;;;;;;;19.25;14.05;;;2.70;83.10;;;0.52;83.03;96254.19;4930279;29;20070;-68
2021/03/17 06:08:23;;;;;;;21.08;14.35;;;2.80;83.10;;;0.55;83.59;96261.69;4949849;28;20059;-72
2021/03/17 06:10:49;;;;;;;21.88;13.48;;;2.80;82.90;;;0.58;82.91;96262.28;4953269;28;20062;-71
2021/03/17 06:13:15;;;;;;;21.50;14.05;;;2.90;82.90;;;0.61;82.90;96267.19;4953143;28;20114;-70
2021/03/17 06:15:59;;;;;;;21.42;14.57;;;2.90;82.70;;;0.67;83.65;96267.66;4937676;29;20046;-70
2021/03/17 06:18:40;;;;;;;20.17;13.80;;;3.00;82.60;;;0.67;84.07;96263.28;4933681;28;20035;-71
2021/03/17 06:21:06;;;;;;;23.75;14.23;;;3.00;82.60;;;0.71;82.47;96274.25;4920184;29;20043;-64
2021/03/17 06:23:32;;;;;;;21.55;14.63;;;3.00;82.40;;;0.73;82.89;96274.94;4933711;29;20189;-65
2021/03/17 06:25:58;;;;;;;21.73;13.75;;;3.10;82.30;;;0.78;82.63;96286.56;4949607;28;20122;-64
2021/03/17 06:28:24;;;;;;;25.15;16.00;;;3.10;82.10;;;0.81;82.59;96282.91;4951966;28;20118;-64
2021/03/17 06:30:53;;;;;;;26.73;16.92;;;3.10;81.90;;;0.87;83.05;96282.38;4924325;28;20027;-68
2021/03/17 06:33:19;;;;;;;24.48;16.70;;;3.20;81.90;;;0.91;82.58;96281.22;4952965;28;20042;-70
2021/03/17 06:35:45;;;;;;;27.35;17.00;;;3.30;81.60;;;0.95;82.35;96294.72;4952403;28;20097;-70
2021/03/17 06:38:26;;;;;;;26.83;17.33;;;3.30;81.60;;;0.98;83.85;96292.72;4940634;28;20034;-67
2021/03/17 06:40:58;;;;;;;25.45;16.65;;;3.40;81.30;;;1.05;83.28;96296.44;4952476;28;20043;-64
2021/03/17 06:43:50;;;;;;;26.92;17.13;;;3.40;81.10;;;1.10;83.40;96301.22;4925324;29;20039;-65
2021/03/17 06:46:18;;;;;;;28.23;16.13;;;3.50;80.80;;;1.13;82.74;96306.16;4938914;28;20039;-65
2021/03/17 06:48:44;;;;;;;25.00;15.75;;;3.50;80.70;;;1.18;81.66;96299.69;4934139;28;20723;-65
2021/03/17 06:51:18;;;;;;;25.23;15.60;;;3.60;80.60;;;1.26;82.02;96290.44;4961213;28;20054;-65
2021/03/17 06:53:49;;;;;;;26.95;15.52;;;3.80;79.90;;;1.36;82.64;96291.31;4966879;28;20417;-66
2021/03/17 06:56:22;;;;;;;20.88;14.48;;;4.00;79.20;;;1.47;82.29;96293.84;4944436;28;20058;-68
2021/03/17 06:58:56;;;;;;;21.33;14.02;;;4.20;78.60;;;1.58;81.88;96285.16;4951967;28;20045;-70
2021/03/17 07:01:30;;;;;;;20.48;13.43;;;4.20;77.70;;;1.67;81.37;96290.41;4953078;28;20094;-66
2021/03/17 07:04:13;;;;;;;20.10;12.60;;;4.30;77.20;;;1.78;80.91;96292.06;4941065;28;20389;-67
2021/03/17 07:06:41;;;;;;;21.52;11.63;;;4.40;76.40;;;1.86;81.13;96294.84;4948186;28;20046;-69
2021/03/17 07:09:18;;;;;;;15.95;10.82;;;4.40;75.40;;;1.92;79.69;96298.69;4931450;29;20054;-69
2021/03/17 07:11:49;;;;;;;17.88;11.85;;;4.50;75.60;;;1.95;80.78;96298.44;4950932;28;20534;-65
2021/03/17 07:14:14;;;;;;;18.33;11.80;;;4.60;75.80;;;1.99;80.82;96305.81;4939634;28;20510;-65
2021/03/17 07:16:47;;;;;;;17.30;11.77;;;4.50;75.70;;;2.03;79.60;96301.19;4946785;29;20073;-65
2021/03/17 07:19:35;;;;;;;18.58;11.75;;;4.50;75.80;;;2.06;79.30;96300.94;4944604;28;20098;-67
2021/03/17 07:22:14;;;;;;;22.60;12.50;;;4.60;75.50;;;2.16;79.64;96306.97;4952771;28;20086;-66
2021/03/17 07:24:42;;;;;;;22.42;14.13;;;5.30;74.10;;;2.29;80.10;96297.19;4936551;28;20130;-66
2021/03/17 07:27:25;;;;;;;22.08;14.30;;;5.30;73.70;;;2.46;79.64;96301.72;4952245;28;20102;-67
2021/03/17 07:30:03;;;;;;;24.58;14.85;;;5.90;71.90;;;2.74;79.44;96301.91;4932598;28;20027;-65
2021/03/17 07:32:55;;;;;;;17.83;13.07;;;6.50;69.30;;;3.13;77.99;96307.09;4966018;28;20090;-69
2021/03/17 07:35:31;;;;;;;20.08;11.88;;;7.20;67.20;;;3.61;77.79;96297.44;4955359;28;20162;-65
2021/03/17 07:38:11;;;;;;;19.23;12.15;;;7.90;64.10;;;4.13;76.25;96300.41;4952566;28;20039;-67
2021/03/17 07:40:47;;;;;;;18.17;11.82;;;8.80;61.50;;;4.55;75.80;96297.31;4939603;28;20102;-65
2021/03/17 07:43:14;;;;;;;18.35;11.15;;;8.90;59.80;;;4.86;78.77;96303.00;4943827;28;20055;-66
2021/03/17 07:45:40;;;;;;;18.35;11.32;;;8.70;59.80;;;5.08;77.93;96304.34;4950292;28;20035;-67
2021/03/17 07:48:08;;;;;;;16.00;11.32;;;8.80;58.90;;;5.35;75.61;96298.19;4931795;28;20046;-65
2021/03/17 07:50:35;;;;;;;14.25;10.27;;;9.40;57.00;;;5.54;76.14;96285.78;4938877;28;20407;-66
2021/03/17 07:53:01;;;;;;;18.00;10.00;;;9.20;56.40;;;5.73;75.70;96292.59;4934633;29;20071;-65
2021/03/17 07:55:28;;;;;;;15.30;9.85;;;9.60;55.70;;;5.84;73.90;96296.72;4965988;28;20109;-65
2021/03/17 07:57:56;;;;;;;16.65;9.98;;;9.40;55.30;;;5.91;74.20;96292.56;4971558;28;20086;-69
2021/03/17 08:00:22;;;;;;;14.13;9.60;;;9.20;56.10;;;6.01;73.88;96290.66;4952496;28;20038;-70
2021/03/17 08:02:48;;;;;;;13.77;9.15;;;9.90;54.10;;;6.22;72.83;96297.28;4954420;28;20388;-66
2021/03/17 08:05:14;;;;;;;16.23;9.45;;;11.30;50.20;;;6.56;73.63;96292.81;4948675;28;20050;-65
2021/03/17 08:07:40;;;;;;;12.93;9.50;;;12.20;47.40;;;7.00;73.09;96292.56;4951050;28;20133;-64
2021/03/17 08:10:06;;;;;;;14.02;9.20;;;13.10;44.60;;;7.53;72.46;96291.28;4970246;28;20057;-64
2021/03/17 08:12:32;;;;;;;14.27;8.75;;;13.80;43.30;;;8.03;72.27;96298.06;4971362;28;20109;-65
2021/03/17 08:14:58;;;;;;;12.23;8.43;;;14.50;41.70;;;8.47;71.46;96301.88;4929946;28;20097;-65
2021/03/17 08:17:35;;;;;;;12.20;8.40;;;15.00;40.60;;;8.92;61.42;96297.69;4923113;28;20038;-63
2021/03/17 08:20:28;;;;;;;13.57;8.88;;;15.40;38.40;;;9.31;59.98;96294.16;4937372;28;20039;-64
2021/03/17 08:22:55;;;;;;;19.00;12.45;;;15.00;39.00;;;9.65;67.68;96291.88;4936236;29;20524;-64
2021/03/17 08:25:45;;;;;;;20.70;13.38;;;15.30;39.60;;;10.13;58.00;96295.81;4937542;29;20039;-66
2021/03/17 08:28:22;;;;;;;10.90;8.45;;;16.30;37.20;;;10.39;58.20;96290.13;4960242;28;20049;-66
2021/03/17 08:30:50;;;;;;;16.00;9.70;;;15.30;37.60;;;10.43;63.60;96290.59;4951150;29;20479;-68
2021/03/17 08:33:39;;;;;;;14.75;9.85;;;15.30;38.90;;;10.34;56.43;96284.63;4934623;28;20161;-67
2021/03/17 08:36:14;;;;;;;14.02;8.35;;;14.30;40.60;;;10.25;57.05;96290.97;4936083;29;20423;-67
2021/03/17 08:38:54;;;;;;;11.90;7.90;;;13.40;42.60;;;9.99;55.89;96287.97;4940340;28;20043;-67
2021/03/17 08:41:39;;;;;;;13.88;8.65;;;12.90;44.90;;;9.58;56.98;96290.16;4948978;28;20039;-64
2021/03/17 08:44:27;;;;;;;10.93;8.65;;;11.90;46.30;;;9.08;56.61;96294.97;4969542;28;20059;-65
2021/03/17 08:46:55;;;;;;;14.18;8.93;;;10.90;48.10;;;8.64;61.53;96304.44;4952620;28;20061;-64
2021/03/17 08:49:32;;;;;;;12.77;8.95;;;10.50;49.40;;;8.22;58.25;96301.13;4955210;28;20502;-66
2021/03/17 08:51:58;;;;;;;13.20;9.40;;;10.10;50.40;;;7.89;62.34;96299.56;4941068;29;20040;-69
2021/03/17 08:54:30;;;;;;;13.80;9.52;;;9.90;51.80;;;7.62;61.11;96301.56;4952151;29;20386;-69
2021/03/17 08:57:03;;;;;;;12.93;7.97;;;9.70;53.00;;;7.33;61.42;96306.50;4971662;28;20360;-69
2021/03/17 08:59:44;;;;;;;16.90;9.35;;;9.50;53.60;;;7.08;60.92;96308.28;4940337;28;20031;-65
2021/03/17 09:02:25;;;;;;;11.20;8.70;;;9.30;54.10;;;6.92;61.07;96308.25;4952019;28;20156;-66
2021/03/17 09:05:05;;;;;;;;;;;9.30;53.70;;;6.77;61.62;96300.22;4968575;28;20507;-66
2021/03/17 09:07:34;;;;;;;14.80;8.68;;;9.40;54.30;;;6.68;63.05;96306.41;4952943;28;19921;-66
2021/03/17 09:10:06;;;;;;;13.65;9.48;;;9.10;54.50;;;6.55;63.16;96306.03;4954655;28;20035;-66
2021/03/17 09:12:34;;;;;;;14.27;9.60;;;8.90;56.60;;;6.36;63.32;96313.19;4950710;29;20078;-69
2021/03/17 09:15:17;;;;;;;15.10;10.02;;;8.40;57.70;;;5.99;63.91;96316.09;4952398;29;20063;-70
2021/03/17 09:17:52;;;;;;;12.27;7.82;;;7.60;60.40;;;5.53;65.16;96325.88;4963028;28;20141;-69
2021/03/17 09:20:40;;;;;;;9.50;6.22;;;6.80;64.00;;;4.98;66.11;96334.84;4967397;28;20035;-69
2021/03/17 09:23:18;;;;;;;9.25;5.65;;;5.90;68.80;;;4.50;66.06;96341.19;4952707;28;20049;-69
2021/03/17 09:25:54;;;;;;;6.45;3.65;;;5.40;69.10;;;4.00;66.84;96336.34;4969888;28;20109;-70
2021/03/17 09:28:23;;;;;;;5.75;3.17;;;4.90;70.30;;;3.66;67.64;96318.66;4954205;28;20042;-66
2021/03/17 09:30:56;;;;;;;4.97;2.88;;;5.10;69.10;;;3.52;67.53;96326.06;4959140;28;20043;-65
2021/03/17 09:33:33;;;;;;;5.55;2.58;;;5.30;67.30;;;3.44;67.36;96321.56;4938603;29;20038;-65
2021/03/17 09:36:04;;;;;;;6.07;3.58;;;5.60;65.70;;;3.42;67.27;96320.91;4943225;28;20035;-66
2021/03/17 09:38:35;;;;;;;7.50;3.60;;;5.70;65.00;;;3.40;66.56;96315.03;4942990;29;20046;-65
2021/03/17 09:41:11;;;;;;;7.22;3.30;;;5.80;63.30;;;3.38;66.97;96316.91;4939744;28;20054;-65
2021/03/17 09:43:44;;;;;;;6.82;3.45;;;5.80;63.00;;;3.55;67.29;96316.19;4950597;28;20118;-69
2021/03/17 09:46:28;;;;;;;6.78;3.20;;;6.80;61.90;;;4.33;66.62;96318.56;4924591;28;20039;-68
2021/03/17 09:49:20;;;;;;;4.90;3.17;;;8.70;56.70;;;5.36;65.08;96313.69;4950069;28;20034;-67
2021/03/17 09:51:50;;;;;;;6.68;3.80;;;10.10;52.10;;;6.21;63.64;96306.91;4940886;28;20415;-68
2021/03/17 09:54:18;;;;;;;7.67;3.37;;;11.30;48.60;;;7.07;63.43;96298.81;4969521;28;20031;-70
2021/03/17 09:56:53;;;;;;;5.45;2.70;;;12.10;45.30;;;7.87;59.90;96304.97;4935857;28;20300;-67
2021/03/17 09:59:33;;;;;;;4.25;2.53;;;13.00;44.40;;;8.64;62.61;96307.03;4944644;28;20510;-70
2021/03/17 10:02:07;;;;;;;6.13;3.15;;;14.30;41.30;;;9.57;57.74;96288.53;4945288;28;20066;-70
2021/03/17 10:04:42;;;;;;;6.20;2.95;;;15.50;38.20;;;10.43;57.57;96295.88;4938854;29;20507;-66
2021/03/17 10:07:13;;;;;;;6.70;3.92;;;16.40;37.10;;;11.62;56.47;96286.56;4946052;28;20042;-65
2021/03/17 10:09:39;;;;;;;6.85;4.60;;;17.70;34.90;;;12.77;61.51;96284.22;4942111;29;20423;-65
2021/03/17 10:12:06;;;;;;;6.60;5.18;;;18.90;32.80;;;13.80;59.87;96274.22;4934752;29;20070;-65
2021/03/17 10:14:33;;;;;;;8.68;4.93;;;19.90;30.50;;;14.78;58.78;96268.91;4960449;28;20514;-66
2021/03/17 10:17:00;;;;;;;7.90;5.90;;;21.30;28.50;;;15.80;55.38;96262.56;4937805;28;20085;-65
2021/03/17 10:19:26;;;;;;;10.57;7.85;;;23.40;26.20;;;16.97;55.37;96258.03;4941437;29;20050;-64
2021/03/17 10:21:53;;;;;;;11.18;8.07;;;24.80;24.50;;;17.54;51.61;96253.94;4935472;29;20031;-64
2021/03/17 10:24:40;;;;;;;12.57;10.40;;;22.90;25.20;;;17.14;42.09;96251.03;4933782;29;20086;-68
2021/03/17 10:27:08;;;;;;;12.43;7.13;;;21.20;27.40;;;16.56;49.33;96256.09;4923390;29;20027;-68
2021/03/17 10:29:34;;;;;;;11.35;6.85;;;19.00;29.80;;;15.85;50.71;96255.59;4949504;29;20039;-64
2021/03/17 10:32:00;;;;;;;10.88;6.82;;;18.20;31.90;;;15.21;50.15;96259.31;4943025;29;20031;-66
2021/03/17 10:34:27;;;;;;;9.43;7.07;;;17.40;33.20;;;14.43;48.84;96256.00;4933233;29;20042;-69
2021/03/17 10:36:55;;;;;;;9.98;7.00;;;16.30;35.40;;;13.61;49.47;96256.56;4929119;28;20049;-64
2021/03/17 10:39:34;;;;;;;28.60;21.80;;;15.10;38.00;;;12.73;46.97;96266.34;4952593;28;20409;-64